KAYS/AYS METAR and TAF weather

Enter ICAO airport designator
Station Type Date Time Source
KAYS METAR 2019/10/16 19:35 UTC NOAA

KAYS 161935Z AUTO 31010G16KT 10SM SCT038 BKN048 BKN120 28/16 A2981 RMK AO2 T02770158 TSNO


Station Type Date Time Source
KAYS Decoded METAR 2019/10/16 19:35 UTC NOAA

Waycross / Ware County, Ga, GA, United States (KAYS) 31-15N 082-24W 46M
Oct 16, 2019 - 03:35 PM EDT / 2019.10.16 1935 UTC
Wind: from the NW (310 degrees) at 12 MPH (10 KT) gusting to 18 MPH (16 KT):0
Visibility: 10 mile(s):0
Sky conditions: mostly cloudy
Temperature: 81.9 F (27.7 C)
Dew Point: 60.4 F (15.8 C)
Relative Humidity: 48%
Pressure (altimeter): 29.81 in. Hg (1009 hPa)
ob: KAYS 161935Z AUTO 31010G16KT 10SM SCT038 BKN048 BKN120 28/16 A2981 RMK AO2 T02770158 TSNO
cycle: 19

Station Type Date Time Source
KAYS TAF UTC NOAA

Error!

Example: see airport list